createdAt,value
2023-08-23T00:02:21.875Z,100699.16
2023-08-23T00:04:48.875Z,100713.47
2023-08-23T00:07:16.782Z,100704.44
2023-08-23T00:09:43.434Z,100720.72
2023-08-23T00:12:10.008Z,100707.94
2023-08-23T00:14:36.817Z,100717.97
2023-08-23T00:17:03.454Z,100720.16
2023-08-23T00:19:30.242Z,100717.63
2023-08-23T00:21:56.892Z,100712.31
2023-08-23T00:24:25.111Z,100704.28
2023-08-23T00:26:51.683Z,100706.56
2023-08-23T00:29:18.218Z,100709.84
2023-08-23T00:31:45.326Z,100701.91
2023-08-23T00:34:11.859Z,100710.38
2023-08-23T00:36:39.719Z,100720.88
2023-08-23T00:39:06.311Z,100708.53
2023-08-23T00:41:34.191Z,100718.41
2023-08-23T00:44:00.691Z,100721.50
2023-08-23T00:46:27.326Z,100713.06
2023-08-23T00:48:55.286Z,100707.88
2023-08-23T00:51:22.034Z,100706.22
2023-08-23T00:53:48.771Z,100724.28
2023-08-23T00:56:16.189Z,100702.50
2023-08-23T00:58:44.277Z,100725.56
2023-08-23T01:01:10.778Z,100714.28
2023-08-23T01:03:37.342Z,100713.50
2023-08-23T01:06:20.229Z,100705.00
2023-08-23T01:08:56.610Z,100717.75
2023-08-23T01:11:28.879Z,100698.56
2023-08-23T01:14:03.794Z,100719.66
2023-08-23T01:16:32.148Z,100715.94
2023-08-23T01:19:01.044Z,100716.72
2023-08-23T01:21:33.869Z,100722.78
2023-08-23T01:24:02.958Z,100716.59
2023-08-23T01:26:29.527Z,100707.31
2023-08-23T01:28:56.114Z,100711.63
2023-08-23T01:31:24.635Z,100718.78
2023-08-23T01:33:57.863Z,100722.63
2023-08-23T01:36:26.863Z,100713.81
2023-08-23T01:38:55.446Z,100717.75
2023-08-23T01:41:24.224Z,100728.34
2023-08-23T01:43:52.549Z,100724.31
2023-08-23T01:46:19.202Z,100730.31
2023-08-23T01:48:45.811Z,100723.03
2023-08-23T01:51:12.480Z,100726.78
2023-08-23T01:53:39.028Z,100723.63
2023-08-23T01:56:06.588Z,100730.88
2023-08-23T01:58:34.493Z,100709.09
2023-08-23T02:01:01.049Z,100712.72
2023-08-23T02:03:27.755Z,100715.41
2023-08-23T02:05:55.220Z,100714.97
2023-08-23T02:08:21.771Z,100710.66
2023-08-23T02:10:48.309Z,100719.69
2023-08-23T02:13:14.897Z,100721.84
2023-08-23T02:15:44.394Z,100710.56
2023-08-23T02:18:11.027Z,100717.53
2023-08-23T02:20:38.646Z,100711.63
2023-08-23T02:23:05.336Z,100697.69
2023-08-23T02:25:31.961Z,100713.19
2023-08-23T02:27:58.499Z,100702.00
2023-08-23T02:30:25.073Z,100719.25
2023-08-23T02:32:52.965Z,100706.09
2023-08-23T02:35:19.536Z,100695.50
2023-08-23T02:37:46.415Z,100700.13
2023-08-23T02:40:13.266Z,100699.13
2023-08-23T02:42:39.766Z,100706.47
2023-08-23T02:45:07.389Z,100709.84
2023-08-23T02:47:33.896Z,100710.69
2023-08-23T02:50:01.830Z,100693.91
2023-08-23T02:52:28.367Z,100711.78
2023-08-23T02:54:54.888Z,100701.56
2023-08-23T02:57:21.564Z,100703.50
2023-08-23T02:59:48.084Z,100711.38
2023-08-23T03:02:14.619Z,100705.25
2023-08-23T03:04:41.172Z,100712.63
2023-08-23T03:07:09.907Z,100714.66
2023-08-23T03:09:36.499Z,100686.59
2023-08-23T03:12:03.293Z,100707.19
2023-08-23T03:14:30.811Z,100708.59
2023-08-23T03:16:57.707Z,100710.13
2023-08-23T03:19:24.404Z,100689.16
2023-08-23T03:21:51.107Z,100701.88
2023-08-23T03:24:19.148Z,100694.34
2023-08-23T03:26:46.696Z,100712.50
2023-08-23T03:29:13.496Z,100714.72
2023-08-23T03:31:40.284Z,100718.34
2023-08-23T03:34:12.088Z,100718.25
2023-08-23T03:36:38.643Z,100717.19
2023-08-23T03:39:05.219Z,100727.25
2023-08-23T03:41:33.186Z,100726.56
2023-08-23T03:44:02.103Z,100724.09
2023-08-23T03:46:28.620Z,100724.03
2023-08-23T03:48:59.091Z,100722.78
2023-08-23T03:51:30.990Z,100727.72
2023-08-23T03:53:57.830Z,100710.22
2023-08-23T03:56:27.513Z,100724.81
2023-08-23T03:58:58.358Z,100718.44
2023-08-23T04:01:25.715Z,100712.97
2023-08-23T04:03:53.284Z,100728.69
2023-08-23T04:06:20.009Z,100727.09
2023-08-23T04:08:46.612Z,100726.56
2023-08-23T04:11:14.942Z,100729.78
2023-08-23T04:13:41.553Z,100728.00
2023-08-23T04:16:12.376Z,100727.13
2023-08-23T04:18:42.301Z,100728.88
2023-08-23T04:21:08.694Z,100733.47
2023-08-23T04:23:37.590Z,100729.97
2023-08-23T04:26:04.314Z,100724.50
2023-08-23T04:28:30.838Z,100720.94
2023-08-23T04:31:00.865Z,100717.41
2023-08-23T04:33:29.736Z,100726.34
2023-08-23T04:35:57.319Z,100729.34
2023-08-23T04:38:23.832Z,100728.53
2023-08-23T04:40:59.503Z,100734.22
2023-08-23T04:43:26.237Z,100740.50
2023-08-23T04:45:54.384Z,100730.31
2023-08-23T04:48:21.424Z,100742.69
2023-08-23T04:50:52.824Z,100737.81
2023-08-23T04:53:19.574Z,100735.78
2023-08-23T04:55:46.804Z,100731.00
2023-08-23T04:58:13.358Z,100736.28
2023-08-23T05:00:39.896Z,100732.59
2023-08-23T05:03:07.861Z,100736.84
2023-08-23T05:05:35.210Z,100745.75
2023-08-23T05:08:03.945Z,100737.53
2023-08-23T05:10:32.365Z,100737.38
2023-08-23T05:13:00.751Z,100741.06
2023-08-23T05:15:27.933Z,100747.19
2023-08-23T05:17:54.919Z,100738.75
2023-08-23T05:20:21.664Z,100743.09
2023-08-23T05:22:49.138Z,100738.66
2023-08-23T05:25:16.951Z,100745.25
2023-08-23T05:27:45.574Z,100746.56
2023-08-23T05:30:13.041Z,100736.84
2023-08-23T05:32:39.663Z,100743.03
2023-08-23T05:35:06.854Z,100751.28
2023-08-23T05:37:33.394Z,100746.19
2023-08-23T05:39:59.934Z,100737.78
2023-08-23T05:42:28.871Z,100739.03
2023-08-23T05:44:55.432Z,100742.22
2023-08-23T05:47:22.025Z,100730.03
2023-08-23T05:49:48.583Z,100735.13
2023-08-23T05:52:15.268Z,100736.75
2023-08-23T05:54:45.052Z,100738.31
2023-08-23T05:57:11.456Z,100733.13
2023-08-23T05:59:39.275Z,100734.00
2023-08-23T06:02:06.294Z,100737.53
2023-08-23T06:04:33.340Z,100738.50
2023-08-23T06:06:59.863Z,100739.22
2023-08-23T06:09:26.465Z,100740.25
2023-08-23T06:11:52.980Z,100741.31
2023-08-23T06:14:22.546Z,100747.97
2023-08-23T06:16:50.868Z,100756.69
2023-08-23T06:19:17.972Z,100743.78
2023-08-23T06:21:44.991Z,100741.72
2023-08-23T06:24:11.700Z,100745.47
2023-08-23T06:26:38.499Z,100752.19
2023-08-23T06:29:09.738Z,100753.03
2023-08-23T06:31:36.316Z,100746.13
2023-08-23T06:34:04.160Z,100751.25
2023-08-23T06:36:30.713Z,100756.31
2023-08-23T06:38:57.193Z,100751.69
2023-08-23T06:41:23.754Z,100744.50
2023-08-23T06:43:58.254Z,100747.84
2023-08-23T06:46:24.784Z,100750.13
2023-08-23T06:48:51.343Z,100750.31
2023-08-23T06:51:19.313Z,100754.22
2023-08-23T06:53:45.890Z,100753.66
2023-08-23T06:56:12.546Z,100754.00
2023-08-23T06:58:39.295Z,100759.78
2023-08-23T07:01:06.109Z,100747.22
2023-08-23T07:03:32.821Z,100745.47
2023-08-23T07:06:19.275Z,100739.78
2023-08-23T07:08:48.737Z,100757.66
2023-08-23T07:11:15.244Z,100756.75
2023-08-23T07:13:41.899Z,100752.81
2023-08-23T07:16:08.509Z,100748.13
2023-08-23T07:18:35.164Z,100754.69
2023-08-23T07:21:01.672Z,100752.97
2023-08-23T07:23:29.484Z,100756.34
2023-08-23T07:25:56.218Z,100758.22
2023-08-23T07:28:22.742Z,100755.06
2023-08-23T07:30:52.386Z,100762.66
2023-08-23T07:33:19.025Z,100757.94
2023-08-23T07:35:56.211Z,100760.25
2023-08-23T07:38:22.725Z,100756.66
2023-08-23T07:40:50.724Z,100762.16
2023-08-23T07:43:18.492Z,100770.16
2023-08-23T07:45:45.338Z,100773.00
2023-08-23T07:48:18.401Z,100769.38
2023-08-23T07:50:58.503Z,100764.75
2023-08-23T07:53:25.634Z,100773.50
2023-08-23T07:56:05.354Z,100762.31
2023-08-23T07:58:39.309Z,100768.16
2023-08-23T08:01:05.992Z,100770.72
2023-08-23T08:03:32.607Z,100777.84
2023-08-23T08:06:00.669Z,100769.16
2023-08-23T08:08:27.930Z,100768.56
2023-08-23T08:10:54.415Z,100772.66
2023-08-23T08:13:24.601Z,100774.41
2023-08-23T08:15:51.118Z,100776.22
2023-08-23T08:18:17.661Z,100784.69
2023-08-23T08:20:47.921Z,100776.59
2023-08-23T08:23:16.376Z,100776.75
2023-08-23T08:25:42.971Z,100777.03
2023-08-23T08:28:09.541Z,100781.09
2023-08-23T08:30:37.419Z,100778.34
2023-08-23T08:33:09.796Z,100784.69
2023-08-23T08:35:36.398Z,100780.94
2023-08-23T08:38:02.898Z,100776.31
2023-08-23T08:40:30.462Z,100780.50
2023-08-23T08:42:57.056Z,100777.34
2023-08-23T08:45:25.835Z,100776.31
2023-08-23T08:47:53.790Z,100777.28
2023-08-23T08:50:22.327Z,100783.03
2023-08-23T08:52:52.725Z,100776.75
2023-08-23T08:55:21.050Z,100780.09
2023-08-23T08:57:50.376Z,100771.22
2023-08-23T09:00:17.102Z,100770.81
2023-08-23T09:02:45.426Z,100774.19
2023-08-23T09:05:15.992Z,100776.69
2023-08-23T09:07:44.742Z,100772.00
2023-08-23T09:10:11.670Z,100769.81
2023-08-23T09:12:40.051Z,100770.25
2023-08-23T09:15:07.844Z,100776.09
2023-08-23T09:17:38.403Z,100769.94
2023-08-23T09:20:05.893Z,100770.53
2023-08-23T09:23:11.165Z,100764.09
2023-08-23T09:29:08.101Z,100777.72
2023-08-23T09:31:48.564Z,100782.81
2023-08-23T09:34:44.217Z,100777.25
2023-08-23T09:37:34.365Z,100787.91
2023-08-23T09:40:30.899Z,100777.94
2023-08-23T09:43:21.668Z,100783.13
2023-08-23T09:46:21.865Z,100785.88
2023-08-23T09:49:18.493Z,100765.88
2023-08-23T09:52:02.644Z,100765.56
2023-08-23T09:57:35.054Z,100757.66
2023-08-23T10:00:08.996Z,100768.16
2023-08-23T10:02:47.201Z,100769.34
2023-08-23T10:05:42.471Z,100764.22
2023-08-23T10:08:40.277Z,100772.53
2023-08-23T10:11:54.708Z,100772.19
2023-08-23T10:14:42.996Z,100770.16
2023-08-23T10:17:45.853Z,100767.44
2023-08-23T10:20:39.668Z,100755.13
2023-08-23T10:23:26.012Z,100754.13
2023-08-23T10:26:19.900Z,100736.31
2023-08-23T10:28:51.566Z,100745.97
2023-08-23T10:31:32.736Z,100755.00
2023-08-23T10:34:17.773Z,100733.16
2023-08-23T10:36:50.429Z,100752.03
2023-08-23T10:39:24.676Z,100743.00
2023-08-23T10:41:56.182Z,100739.81
2023-08-23T10:44:29.553Z,100733.25
2023-08-23T10:47:00.403Z,100741.19
2023-08-23T10:49:30.723Z,100738.09
2023-08-23T10:52:02.365Z,100734.41
2023-08-23T10:58:32.412Z,100715.59
2023-08-23T11:00:59.590Z,100727.34
2023-08-23T11:03:32.537Z,100726.53
2023-08-23T11:05:59.882Z,100720.97
2023-08-23T11:08:30.962Z,100729.25
2023-08-23T11:11:00.104Z,100720.13
2023-08-23T11:13:26.663Z,100716.88
2023-08-23T11:15:54.889Z,100723.50
2023-08-23T11:18:21.998Z,100722.66
2023-08-23T11:20:50.288Z,100719.84
2023-08-23T11:23:21.968Z,100703.84
2023-08-23T11:25:51.476Z,100704.97
2023-08-23T11:28:20.797Z,100708.75
2023-08-23T11:30:49.400Z,100694.03
2023-08-23T11:33:19.844Z,100690.78
2023-08-23T11:35:46.692Z,100702.13
2023-08-23T11:38:28.587Z,100707.75
2023-08-23T11:40:55.571Z,100698.28
2023-08-23T11:43:23.591Z,100687.00
2023-08-23T11:45:50.698Z,100697.72
2023-08-23T11:48:22.140Z,100709.41
2023-08-23T11:50:49.879Z,100710.59
2023-08-23T11:53:17.846Z,100708.31
2023-08-23T11:55:44.475Z,100690.34
2023-08-23T11:58:13.177Z,100697.13
2023-08-23T12:00:42.748Z,100700.91
2023-08-23T12:03:12.181Z,100700.91
2023-08-23T12:05:38.808Z,100697.16
2023-08-23T12:08:10.565Z,100694.63
2023-08-23T12:10:38.428Z,100691.34
2023-08-23T12:13:08.509Z,100663.31
2023-08-23T12:15:39.945Z,100673.44
2023-08-23T12:18:11.571Z,100689.47
2023-08-23T12:20:40.252Z,100676.38
2023-08-23T12:23:08.910Z,100684.81
2023-08-23T12:25:35.689Z,100665.81
2023-08-23T12:28:13.259Z,100664.34
2023-08-23T12:30:45.521Z,100667.16
2023-08-23T12:33:12.442Z,100679.16
2023-08-23T12:35:39.124Z,100671.66
2023-08-23T12:38:05.840Z,100667.78
2023-08-23T12:40:32.616Z,100671.88
2023-08-23T12:42:59.148Z,100672.94
2023-08-23T12:45:27.296Z,100668.94
2023-08-23T12:47:55.401Z,100669.44
2023-08-23T12:50:23.216Z,100667.16
2023-08-23T12:52:49.774Z,100665.78
2023-08-23T12:55:16.460Z,100670.47
2023-08-23T12:57:43.025Z,100655.94
2023-08-23T13:00:30.287Z,100681.13
2023-08-23T13:03:00.822Z,100672.56
2023-08-23T13:05:28.019Z,100654.97
2023-08-23T13:07:54.859Z,100681.72
2023-08-23T13:10:21.594Z,100665.16
2023-08-23T13:12:48.481Z,100660.13
2023-08-23T13:15:15.916Z,100670.97
2023-08-23T13:17:42.931Z,100652.16
2023-08-23T13:20:12.323Z,100644.66
2023-08-23T13:22:43.946Z,100664.09
2023-08-23T13:25:13.552Z,100653.00
2023-08-23T13:27:40.284Z,100660.28
2023-08-23T13:30:08.426Z,100642.44
2023-08-23T13:32:35.157Z,100663.97
2023-08-23T13:35:01.843Z,100650.16
2023-08-23T13:37:29.869Z,100655.44
2023-08-23T13:39:56.905Z,100651.69
2023-08-23T13:42:23.903Z,100641.59
2023-08-23T13:44:52.711Z,100650.81
2023-08-23T13:47:21.447Z,100640.13
2023-08-23T13:49:48.606Z,100652.63
2023-08-23T13:52:21.146Z,100644.50
2023-08-23T13:54:56.882Z,100630.63
2023-08-23T13:57:27.767Z,100643.16
2023-08-23T13:59:59.316Z,100620.69
2023-08-23T14:02:28.710Z,100614.88
2023-08-23T14:04:58.966Z,100630.09
2023-08-23T14:07:25.779Z,100610.03
2023-08-23T14:10:18.227Z,100627.56
2023-08-23T14:12:48.976Z,100606.59
2023-08-23T14:15:27.144Z,100610.75
2023-08-23T14:17:56.834Z,100615.84
2023-08-23T14:20:25.090Z,100616.72
2023-08-23T14:22:55.017Z,100614.19
2023-08-23T14:25:28.964Z,100601.44
2023-08-23T14:28:02.798Z,100597.66
2023-08-23T14:30:35.676Z,100611.81
2023-08-23T14:33:07.822Z,100591.78
2023-08-23T14:35:37.430Z,100612.50
2023-08-23T14:38:06.417Z,100592.66
2023-08-23T14:40:39.599Z,100611.91
2023-08-23T14:43:09.168Z,100608.88
2023-08-23T14:45:45.536Z,100596.22
2023-08-23T14:48:28.006Z,100602.50
2023-08-23T14:51:03.334Z,100612.13
2023-08-23T14:53:33.332Z,100617.38
2023-08-23T14:56:03.870Z,100597.94
2023-08-23T14:58:39.633Z,100599.28
2023-08-23T15:01:12.523Z,100593.88
2023-08-23T15:03:47.285Z,100596.28
2023-08-23T15:06:14.203Z,100586.59
2023-08-23T15:08:45.175Z,100586.16
2023-08-23T15:11:13.721Z,100582.88
2023-08-23T15:13:51.208Z,100593.69
2023-08-23T15:16:26.796Z,100583.44
2023-08-23T15:18:53.889Z,100561.31
2023-08-23T15:21:32.030Z,100594.22
2023-08-23T15:24:01.724Z,100589.50
2023-08-23T15:26:37.914Z,100599.53
2023-08-23T15:29:07.447Z,100587.69
2023-08-23T15:31:41.880Z,100600.72
2023-08-23T15:34:08.893Z,100596.03
2023-08-23T15:36:41.042Z,100604.41
2023-08-23T15:39:07.837Z,100595.97
2023-08-23T15:41:40.405Z,100587.66
2023-08-23T15:44:07.189Z,100597.09
2023-08-23T15:46:39.428Z,100588.59
2023-08-23T15:49:09.070Z,100586.53
2023-08-23T15:51:40.058Z,100592.88
2023-08-23T15:54:11.109Z,100597.44
2023-08-23T15:56:43.124Z,100591.06
2023-08-23T15:59:10.480Z,100598.53
2023-08-23T16:01:39.797Z,100601.19
2023-08-23T16:04:08.154Z,100605.16
2023-08-23T16:06:34.824Z,100600.38
2023-08-23T16:09:01.472Z,100615.63
2023-08-23T16:11:28.536Z,100596.78
2023-08-23T16:14:01.459Z,100608.69
2023-08-23T16:16:28.370Z,100604.13
2023-08-23T16:18:56.437Z,100603.22
2023-08-23T16:21:23.996Z,100599.09
2023-08-23T16:23:50.591Z,100602.06
2023-08-23T16:26:23.001Z,100595.59
2023-08-23T16:28:55.709Z,100590.03
2023-08-23T16:31:27.789Z,100586.84
2023-08-23T16:33:54.486Z,100598.88
2023-08-23T16:36:21.066Z,100603.03
2023-08-23T16:38:50.219Z,100593.38
2023-08-23T16:41:19.161Z,100603.38
2023-08-23T16:43:49.387Z,100601.94
2023-08-23T16:46:21.768Z,100602.56
2023-08-23T16:48:51.231Z,100592.59
2023-08-23T16:51:17.714Z,100595.81
2023-08-23T16:53:44.523Z,100597.28
2023-08-23T16:56:13.972Z,100587.09
2023-08-23T16:58:40.508Z,100596.16
2023-08-23T17:01:07.103Z,100596.91
2023-08-23T17:06:22.257Z,100592.06
2023-08-23T17:08:48.891Z,100582.75
2023-08-23T17:11:16.679Z,100585.94
2023-08-23T17:13:43.402Z,100589.75
2023-08-23T17:16:10.055Z,100589.28
2023-08-23T17:18:36.646Z,100589.72
2023-08-23T17:21:03.212Z,100587.97
2023-08-23T17:23:31.256Z,100581.53
2023-08-23T17:25:57.815Z,100589.69
2023-08-23T17:28:24.719Z,100591.00
2023-08-23T17:30:51.290Z,100581.50
2023-08-23T17:33:17.889Z,100591.13
2023-08-23T17:35:46.550Z,100586.41
2023-08-23T17:38:14.074Z,100589.88
2023-08-23T17:40:42.011Z,100592.94
2023-08-23T17:43:08.545Z,100593.34
2023-08-23T17:45:35.120Z,100592.44
2023-08-23T17:48:01.680Z,100593.28
2023-08-23T17:50:28.185Z,100597.47
2023-08-23T17:52:56.402Z,100594.94
2023-08-23T17:55:23.226Z,100602.31
2023-08-23T17:57:51.038Z,100603.28
2023-08-23T18:00:18.939Z,100604.06
2023-08-23T18:02:45.466Z,100611.53
2023-08-23T18:05:13.840Z,100606.19
2023-08-23T18:07:40.459Z,100606.94
2023-08-23T18:10:08.658Z,100613.75
2023-08-23T18:12:35.461Z,100617.94
2023-08-23T18:15:03.922Z,100612.94
2023-08-23T18:17:30.435Z,100624.16
2023-08-23T18:19:58.438Z,100626.56
2023-08-23T18:22:25.042Z,100632.63
2023-08-23T18:24:51.624Z,100630.16
2023-08-23T18:27:18.126Z,100630.41
2023-08-23T18:29:44.615Z,100629.03
2023-08-23T18:32:12.497Z,100636.88
2023-08-23T18:34:39.057Z,100635.25
2023-08-23T18:37:05.687Z,100645.16
2023-08-23T18:39:32.184Z,100643.06
2023-08-23T18:41:58.718Z,100658.16
2023-08-23T18:44:25.272Z,100650.38
2023-08-23T18:46:58.592Z,100646.63
2023-08-23T18:49:30.176Z,100658.47
2023-08-23T18:51:59.692Z,100650.81
2023-08-23T18:54:28.578Z,100645.19
2023-08-23T18:56:55.097Z,100653.47
2023-08-23T18:59:32.060Z,100651.44
2023-08-23T19:02:02.175Z,100660.22
2023-08-23T19:04:43.874Z,100665.75
2023-08-23T19:07:13.203Z,100661.97
2023-08-23T19:09:44.506Z,100664.22
2023-08-23T19:12:12.137Z,100667.38
2023-08-23T19:14:38.977Z,100665.22
2023-08-23T19:17:07.457Z,100664.19
2023-08-23T19:19:34.081Z,100670.69
2023-08-23T19:22:05.010Z,100671.72
2023-08-23T19:24:32.711Z,100690.53
2023-08-23T19:26:59.773Z,100689.88
2023-08-23T19:29:37.863Z,100687.69
2023-08-23T19:32:05.630Z,100684.41
2023-08-23T19:34:35.614Z,100687.38
2023-08-23T19:37:10.007Z,100679.56
2023-08-23T19:39:41.406Z,100676.41
2023-08-23T19:42:10.357Z,100672.25
2023-08-23T19:44:39.272Z,100680.22
2023-08-23T19:47:05.948Z,100682.09
2023-08-23T19:49:35.059Z,100690.84
2023-08-23T19:52:10.284Z,100688.44
2023-08-23T19:54:47.901Z,100693.97
2023-08-23T19:57:41.064Z,100688.66
2023-08-23T20:00:17.871Z,100698.81
2023-08-23T20:02:50.484Z,100693.13
2023-08-23T20:05:21.262Z,100697.09
2023-08-23T20:07:55.662Z,100693.56
2023-08-23T20:10:25.072Z,100698.78
2023-08-23T20:12:51.533Z,100700.53
2023-08-23T20:15:20.498Z,100703.28
2023-08-23T20:17:48.440Z,100705.97
2023-08-23T20:20:15.447Z,100710.16
2023-08-23T20:22:42.077Z,100708.88
2023-08-23T20:25:09.950Z,100706.31
2023-08-23T20:27:39.248Z,100703.81
2023-08-23T20:30:07.254Z,100710.53
2023-08-23T20:32:36.418Z,100711.75
2023-08-23T20:35:05.539Z,100704.69
2023-08-23T20:37:32.070Z,100714.41
2023-08-23T20:39:58.538Z,100714.84
2023-08-23T20:42:28.921Z,100704.72
2023-08-23T20:44:55.535Z,100703.28
2023-08-23T20:47:22.169Z,100703.56
2023-08-23T20:49:53.758Z,100703.56
2023-08-23T20:52:20.310Z,100725.59
2023-08-23T20:54:46.776Z,100720.53
2023-08-23T20:57:13.351Z,100726.03
2023-08-23T20:59:43.471Z,100723.28
2023-08-23T21:02:09.948Z,100724.38
2023-08-23T21:04:36.532Z,100724.72
2023-08-23T21:07:03.122Z,100724.06
2023-08-23T21:09:29.905Z,100715.09
2023-08-23T21:11:56.393Z,100717.97
2023-08-23T21:14:22.931Z,100716.78
2023-08-23T21:16:50.813Z,100718.84
2023-08-23T21:19:17.415Z,100717.28
2023-08-23T21:21:46.872Z,100716.50
2023-08-23T21:24:13.416Z,100721.16
2023-08-23T21:26:39.932Z,100721.34
2023-08-23T21:29:06.650Z,100736.13
2023-08-23T21:31:33.142Z,100729.16
2023-08-23T21:34:01.048Z,100733.91
2023-08-23T21:36:27.542Z,100733.19
2023-08-23T21:38:54.028Z,100728.13
2023-08-23T21:41:20.550Z,100717.34
2023-08-23T21:43:47.038Z,100719.31
2023-08-23T21:46:13.629Z,100725.03
2023-08-23T21:48:40.157Z,100722.69
2023-08-23T21:51:08.046Z,100725.63
2023-08-23T21:53:34.575Z,100725.88
2023-08-23T21:56:01.063Z,100723.59
2023-08-23T21:58:29.383Z,100717.22
2023-08-23T22:00:57.739Z,100719.66
2023-08-23T22:03:28.505Z,100707.78
2023-08-23T22:05:55.145Z,100720.75
2023-08-23T22:08:22.961Z,100714.66
2023-08-23T22:10:49.502Z,100717.50
2023-08-23T22:13:16.045Z,100714.09
2023-08-23T22:15:42.523Z,100705.94
2023-08-23T22:18:09.104Z,100717.63
2023-08-23T22:20:35.643Z,100703.28
2023-08-23T22:23:02.203Z,100699.75
2023-08-23T22:25:30.083Z,100706.81
2023-08-23T22:27:56.584Z,100710.75
2023-08-23T22:30:23.256Z,100711.44
2023-08-23T22:32:49.824Z,100688.59
2023-08-23T22:35:16.465Z,100712.16
2023-08-23T22:37:42.958Z,100695.28
2023-08-23T22:40:09.751Z,100710.81
2023-08-23T22:42:37.606Z,100707.28
2023-08-23T22:45:04.824Z,100712.19
2023-08-23T22:47:31.377Z,100711.41
2023-08-23T22:49:57.900Z,100702.38
2023-08-23T22:52:24.399Z,100699.44
2023-08-23T22:54:50.997Z,100711.41
2023-08-23T22:57:17.525Z,100698.97
2023-08-23T22:59:45.819Z,100703.56
2023-08-23T23:02:12.341Z,100703.97
2023-08-23T23:04:38.863Z,100705.25
2023-08-23T23:07:05.353Z,100703.00
2023-08-23T23:09:31.869Z,100708.72
2023-08-23T23:11:58.368Z,100702.22
2023-08-23T23:14:25.111Z,100704.09
2023-08-23T23:16:53.537Z,100692.03
2023-08-23T23:19:23.086Z,100683.22
2023-08-23T23:21:49.925Z,100681.31
2023-08-23T23:24:16.497Z,100696.34
2023-08-23T23:26:42.985Z,100697.34
2023-08-23T23:29:09.497Z,100695.56
2023-08-23T23:31:36.119Z,100697.63
2023-08-23T23:34:04.031Z,100699.03
2023-08-23T23:36:31.451Z,100702.75
2023-08-23T23:38:58.180Z,100695.56
2023-08-23T23:41:24.666Z,100694.59
2023-08-23T23:43:51.156Z,100697.63
2023-08-23T23:46:17.722Z,100701.47
2023-08-23T23:48:44.497Z,100686.88
2023-08-23T23:51:12.325Z,100701.06
2023-08-23T23:53:38.845Z,100690.81
2023-08-23T23:56:05.349Z,100694.31
2023-08-23T23:58:31.964Z,100688.81
